Kennicott — WCY2920 — position and weather

sailwx.info

Track history (hours):
 
Tides and Currents Weather Stations Pressure Air Temp Water Temp Dewpoint Dewpoint Depression Visibility Wind Speed Wind Dir Waves Ship Positions

Kennicott

Owner: ALASKA, STATE OF, Anchorage, AK. More information available from US FCC via Universal Licensing System and Coast Guard Vessel Documentation Center.

Last reported at 2019-Sep-16 12:00 UTC. Time now 2019-Sep-17 08:40 UTC.
Position N 58°42' W 150°48'.

Type: Passenger vessel. MMSI: 368250000.

Wind from 320 at 18 knots

Barometer 997.4 mb
Air temperature 13.0 ° C

Date/timePositionNaut miles runAvg speedWind from/ knotsBaromVisibWave heightAir tempDewpointWater temp
2019-Sep-16 12:00N 58°42' W 150°48'   320 / 18997.4 13.0
2019-Sep-11 03:05N 58°09' W 136°40'12 4.6
2019-Sep-11 00:36N 58°14' W 136°19'216.9
2019-Sep-11 00:31N 58°14' W 136°17'917.7
2019-Sep-11 00:01N 58°15' W 135°60'816.4
2019-Sep-10 23:31N 58°18' W 135°45'917.1
2019-Sep-10 22:59N 58°14' W 135°29'245 7.1
2019-Sep-09 12:25N 54°56' W 131°06'715.9
2019-Sep-09 12:00N 54°50' W 131°04'816.3
2019-Sep-09 11:30N 54°42' W 131°02'815.7
2019-Sep-09 10:59N 54°34' W 131°01'816.3
2019-Sep-09 10:30N 54°26' W 131°04'816.7
2019-Sep-09 10:00N 54°18' W 131°03'816.3
2019-Sep-09 09:31N 54°10' W 131°01'714.0
2019-Sep-09 09:00N 54°03' W 130°59'816.3
2019-Sep-09 08:30N 53°55' W 130°56'816.3
2019-Sep-09 08:01N 53°50' W 130°46'816.5
2019-Sep-09 07:30N 53°44' W 130°35'816.6
2019-Sep-09 07:00N 53°39' W 130°25'1116.7
2019-Sep-09 06:22N 53°33' W 130°09'616.9
2019-Sep-09 05:59N 53°29' W 130°01'5016.6
2019-Sep-09 03:00N 52°49' W 129°12'1717.2
2019-Sep-09 02:00N 52°36' W 128°53'816.5
2019-Sep-09 01:30N 52°28' W 128°51'816.4
2019-Sep-09 01:00N 52°20' W 128°48'714.3
2019-Sep-09 00:30N 52°14' W 128°44'816.3
2019-Sep-09 00:00N 52°15' W 128°31'816.5
2019-Sep-08 23:30N 52°15' W 128°17'815.4
2019-Sep-08 23:00N 52°11' W 128°06'4 7.3
2019-Sep-08 22:31N 52°08' W 128°08'713.7
2019-Sep-08 22:01N 52°04' W 127°58'714.3
2019-Sep-08 21:31N 51°57' W 127°56'816.1
2019-Sep-08 21:00N 51°49' W 127°55'816.2
2019-Sep-08 20:30N 51°41' W 127°55'815.9
2019-Sep-08 20:01N 51°33' W 127°52'713.2
2019-Sep-08 19:30N 51°27' W 127°51'815.8
2019-Sep-08 19:00N 51°19' W 127°52'815.8
2019-Sep-08 18:30N 51°11' W 127°51'816.0
2019-Sep-08 18:00N 51°05' W 127°42'916.0
2019-Sep-08 17:26N 50°58' W 127°32'2216.2
2019-Sep-08 16:05N 50°46' W 127°03'216.7
2019-Sep-08 15:58N 50°45' W 127°01'5316.0
2019-Sep-08 12:40N 50°23' W 125°46'318.3
2019-Sep-08 12:29N 50°22' W 125°41'918.2
2019-Sep-08 12:00N 50°21' W 125°27'816.2
2019-Sep-08 11:31N 50°13' W 125°23'816.3
2019-Sep-08 11:01N 50°06' W 125°17'816.6
2019-Sep-08 10:30N 49°59' W 125°10'816.5
2019-Sep-08 10:00N 49°53' W 125°01'816.8
2019-Sep-08 09:30N 49°47' W 124°51'816.8
2019-Sep-08 09:00N 49°41' W 124°42'1016.5
2019-Sep-08 08:24N 49°34' W 124°32'916.3
2019-Sep-08 07:51N 49°28' W 124°22'616.3
2019-Sep-08 07:31N 49°25' W 124°15'816.6
2019-Sep-08 07:01N 49°23' W 124°02'816.6
2019-Sep-08 06:31N 49°22' W 123°50'816.7
2019-Sep-08 06:00N 49°17' W 123°39'816.6
2019-Sep-08 05:30N 49°11' W 123°30'816.8
2019-Sep-08 05:00N 49°05' W 123°22'816.7
2019-Sep-08 04:30N 48°59' W 123°13'816.9
2019-Sep-08 04:01N 48°54' W 123°03'917.0
2019-Sep-08 03:31N 48°48' W 122°53'816.2
2019-Sep-08 03:00N 48°43' W 122°44'714.9
2019-Sep-08 02:31N 48°38' W 122°35'611.6
2019-Sep-08 02:00N 48°43' W 122°31'0 0.0
2019-Sep-08 01:29N 48°43' W 122°31'0 0.0
2019-Sep-08 00:59N 48°43' W 122°31'0 0.0
2019-Sep-08 00:26N 48°43' W 122°31'0 0.0
2019-Sep-07 23:59N 48°43' W 122°31'0 0.0
2019-Sep-07 23:25N 48°43' W 122°31'0 0.0
2019-Sep-07 22:51N 48°43' W 122°31'0 0.0
2019-Sep-07 22:30N 48°43' W 122°31'0 0.0
2019-Sep-07 22:00N 48°43' W 122°31'0 0.0
2019-Sep-07 21:30N 48°43' W 122°31'0 0.0
2019-Sep-07 21:00N 48°43' W 122°31'0 0.0
2019-Sep-07 20:30N 48°43' W 122°31'0 0.0
2019-Sep-07 20:00N 48°43' W 122°31'0 0.0
2019-Sep-07 19:30N 48°43' W 122°31'0 0.0
2019-Sep-07 19:00N 48°43' W 122°31'0 0.0
2019-Sep-07 18:30N 48°43' W 122°31'0 0.0
2019-Sep-07 18:00N 48°43' W 122°31'0 0.0
2019-Sep-07 17:30N 48°43' W 122°31'0 0.0
2019-Sep-07 17:00N 48°43' W 122°31'0 0.0
2019-Sep-07 16:30N 48°43' W 122°31'0 0.0
2019-Sep-07 15:57N 48°43' W 122°31'0 0.0
2019-Sep-07 15:30N 48°43' W 122°31'0 0.0
2019-Sep-07 15:00N 48°43' W 122°31'0 0.1
2019-Sep-07 14:30N 48°43' W 122°31'4 8.8
2019-Sep-07 14:01N 48°39' W 122°33'510.0
2019-Sep-07 13:31N 48°39' W 122°41'714.2
2019-Sep-07 13:00N 48°45' W 122°47'714.7
2019-Sep-07 12:30N 48°49' W 122°57'714.9
2019-Sep-07 12:01N 48°53' W 123°06'815.8
2019-Sep-07 11:30N 48°58' W 123°15'816.0
2019-Sep-07 11:01N 49°04' W 123°24'815.1
2019-Sep-07 10:30N 49°09' W 123°31'714.8
2019-Sep-07 10:00N 49°15' W 123°39'815.0
2019-Sep-07 09:30N 49°20' W 123°47'714.8
2019-Sep-07 09:00N 49°23' W 123°58'714.9
2019-Sep-07 08:31N 49°24' W 124°09'714.7
2019-Sep-07 08:00N 49°26' W 124°20'814.9
2019-Sep-07 07:28N 49°32' W 124°29'714.9
2019-Sep-07 07:01N 49°36' W 124°36'814.9
2019-Sep-07 06:30N 49°42' W 124°45'715.0
2019-Sep-07 06:01N 49°47' W 124°53'714.9
2019-Sep-07 05:30N 49°52' W 125°02'714.4
2019-Sep-07 05:00N 49°57' W 125°09'714.8
2019-Sep-07 04:30N 50°04' W 125°15'714.4
2019-Sep-07 04:00N 50°09' W 125°21'714.3
2019-Sep-07 03:30N 50°16' W 125°24'6614.9
2019-Sep-06 23:05N 50°44' W 126°58'2516.0
2019-Sep-06 21:30N 50°58' W 127°31'815.2
2019-Sep-06 20:59N 51°04' W 127°40'815.8
2019-Sep-06 20:31N 51°09' W 127°49'815.5
2019-Sep-06 20:01N 51°16' W 127°53'816.7
2019-Sep-06 19:31N 51°24' W 127°51'816.7
2019-Sep-06 19:01N 51°33' W 127°53'816.9
2019-Sep-06 18:30N 51°41' W 127°55'816.5
2019-Sep-06 18:01N 51°49' W 127°56'817.0
2019-Sep-06 17:31N 51°58' W 127°56'812.8
2019-Sep-06 16:54N 52°05' W 128°02'513.2
2019-Sep-06 16:31N 52°08' W 128°08'4 7.2
2019-Sep-06 16:00N 52°12' W 128°07'714.7
2019-Sep-06 15:30N 52°15' W 128°18'816.1
2019-Sep-06 15:00N 52°15' W 128°31'816.1
2019-Sep-06 14:30N 52°13' W 128°43'713.9
2019-Sep-06 14:00N 52°20' W 128°48'816.6
2019-Sep-06 13:30N 52°28' W 128°51'816.4
2019-Sep-06 13:00N 52°36' W 128°53'815.7
2019-Sep-06 12:30N 52°42' W 129°01'816.0
2019-Sep-06 12:00N 52°48' W 129°11'  
Track history (hours):
 
Tides and Currents Weather Stations Pressure Air Temp Water Temp Dewpoint Dewpoint Depression Visibility Wind Speed Wind Dir Waves Ship Positions

Kennicott

Owner: ALASKA, STATE OF, Anchorage, AK. More information available from US FCC via Universal Licensing System and Coast Guard Vessel Documentation Center.

Last reported at 2019-Sep-16 12:00 UTC. Time now 2019-Sep-17 08:40 UTC.
Position N 58°42' W 150°48'.

Type: Passenger vessel. MMSI: 368250000.

Wind from 320 at 18 knots

Barometer 997.4 mb
Air temperature 13.0 ° C

Date/timePositionNaut miles runAvg speedWind from/ knotsBaromVisibWave heightAir tempDewpointWater temp
2019-Sep-16 12:00N 58°42' W 150°48'   320 / 18997.4 13.0
2019-Sep-11 03:05N 58°09' W 136°40'12 4.6
2019-Sep-11 00:36N 58°14' W 136°19'216.9
2019-Sep-11 00:31N 58°14' W 136°17'917.7
2019-Sep-11 00:01N 58°15' W 135°60'816.4
2019-Sep-10 23:31N 58°18' W 135°45'917.1
2019-Sep-10 22:59N 58°14' W 135°29'245 7.1
2019-Sep-09 12:25N 54°56' W 131°06'715.9
2019-Sep-09 12:00N 54°50' W 131°04'816.3
2019-Sep-09 11:30N 54°42' W 131°02'815.7
2019-Sep-09 10:59N 54°34' W 131°01'816.3
2019-Sep-09 10:30N 54°26' W 131°04'816.7
2019-Sep-09 10:00N 54°18' W 131°03'816.3
2019-Sep-09 09:31N 54°10' W 131°01'714.0
2019-Sep-09 09:00N 54°03' W 130°59'816.3
2019-Sep-09 08:30N 53°55' W 130°56'816.3
2019-Sep-09 08:01N 53°50' W 130°46'816.5
2019-Sep-09 07:30N 53°44' W 130°35'816.6
2019-Sep-09 07:00N 53°39' W 130°25'1116.7
2019-Sep-09 06:22N 53°33' W 130°09'616.9
2019-Sep-09 05:59N 53°29' W 130°01'5016.6
2019-Sep-09 03:00N 52°49' W 129°12'1717.2
2019-Sep-09 02:00N 52°36' W 128°53'816.5
2019-Sep-09 01:30N 52°28' W 128°51'816.4
2019-Sep-09 01:00N 52°20' W 128°48'714.3
2019-Sep-09 00:30N 52°14' W 128°44'816.3
2019-Sep-09 00:00N 52°15' W 128°31'816.5
2019-Sep-08 23:30N 52°15' W 128°17'815.4
2019-Sep-08 23:00N 52°11' W 128°06'4 7.3
2019-Sep-08 22:31N 52°08' W 128°08'713.7
2019-Sep-08 22:01N 52°04' W 127°58'714.3
2019-Sep-08 21:31N 51°57' W 127°56'816.1
2019-Sep-08 21:00N 51°49' W 127°55'816.2
2019-Sep-08 20:30N 51°41' W 127°55'815.9
2019-Sep-08 20:01N 51°33' W 127°52'713.2
2019-Sep-08 19:30N 51°27' W 127°51'815.8
2019-Sep-08 19:00N 51°19' W 127°52'815.8
2019-Sep-08 18:30N 51°11' W 127°51'816.0
2019-Sep-08 18:00N 51°05' W 127°42'916.0
2019-Sep-08 17:26N 50°58' W 127°32'2216.2
2019-Sep-08 16:05N 50°46' W 127°03'216.7
2019-Sep-08 15:58N 50°45' W 127°01'5316.0
2019-Sep-08 12:40N 50°23' W 125°46'318.3
2019-Sep-08 12:29N 50°22' W 125°41'918.2
2019-Sep-08 12:00N 50°21' W 125°27'816.2
2019-Sep-08 11:31N 50°13' W 125°23'816.3
2019-Sep-08 11:01N 50°06' W 125°17'816.6
2019-Sep-08 10:30N 49°59' W 125°10'816.5
2019-Sep-08 10:00N 49°53' W 125°01'816.8
2019-Sep-08 09:30N 49°47' W 124°51'816.8
2019-Sep-08 09:00N 49°41' W 124°42'1016.5
2019-Sep-08 08:24N 49°34' W 124°32'916.3
2019-Sep-08 07:51N 49°28' W 124°22'616.3
2019-Sep-08 07:31N 49°25' W 124°15'816.6
2019-Sep-08 07:01N 49°23' W 124°02'816.6
2019-Sep-08 06:31N 49°22' W 123°50'816.7
2019-Sep-08 06:00N 49°17' W 123°39'816.6
2019-Sep-08 05:30N 49°11' W 123°30'816.8
2019-Sep-08 05:00N 49°05' W 123°22'816.7
2019-Sep-08 04:30N 48°59' W 123°13'816.9
2019-Sep-08 04:01N 48°54' W 123°03'917.0
2019-Sep-08 03:31N 48°48' W 122°53'816.2
2019-Sep-08 03:00N 48°43' W 122°44'714.9
2019-Sep-08 02:31N 48°38' W 122°35'611.6
2019-Sep-08 02:00N 48°43' W 122°31'0 0.0
2019-Sep-08 01:29N 48°43' W 122°31'0 0.0
2019-Sep-08 00:59N 48°43' W 122°31'0 0.0
2019-Sep-08 00:26N 48°43' W 122°31'0 0.0
2019-Sep-07 23:59N 48°43' W 122°31'0 0.0
2019-Sep-07 23:25N 48°43' W 122°31'0 0.0
2019-Sep-07 22:51N 48°43' W 122°31'0 0.0
2019-Sep-07 22:30N 48°43' W 122°31'0 0.0
2019-Sep-07 22:00N 48°43' W 122°31'0 0.0
2019-Sep-07 21:30N 48°43' W 122°31'0 0.0
2019-Sep-07 21:00N 48°43' W 122°31'0 0.0
2019-Sep-07 20:30N 48°43' W 122°31'0 0.0
2019-Sep-07 20:00N 48°43' W 122°31'0 0.0
2019-Sep-07 19:30N 48°43' W 122°31'0 0.0
2019-Sep-07 19:00N 48°43' W 122°31'0 0.0
2019-Sep-07 18:30N 48°43' W 122°31'0 0.0
2019-Sep-07 18:00N 48°43' W 122°31'0 0.0
2019-Sep-07 17:30N 48°43' W 122°31'0 0.0
2019-Sep-07 17:00N 48°43' W 122°31'0 0.0
2019-Sep-07 16:30N 48°43' W 122°31'0 0.0
2019-Sep-07 15:57N 48°43' W 122°31'0 0.0
2019-Sep-07 15:30N 48°43' W 122°31'0 0.0
2019-Sep-07 15:00N 48°43' W 122°31'0 0.1
2019-Sep-07 14:30N 48°43' W 122°31'4 8.8
2019-Sep-07 14:01N 48°39' W 122°33'510.0
2019-Sep-07 13:31N 48°39' W 122°41'714.2
2019-Sep-07 13:00N 48°45' W 122°47'714.7
2019-Sep-07 12:30N 48°49' W 122°57'714.9
2019-Sep-07 12:01N 48°53' W 123°06'815.8
2019-Sep-07 11:30N 48°58' W 123°15'816.0
2019-Sep-07 11:01N 49°04' W 123°24'815.1
2019-Sep-07 10:30N 49°09' W 123°31'714.8
2019-Sep-07 10:00N 49°15' W 123°39'815.0
2019-Sep-07 09:30N 49°20' W 123°47'714.8
2019-Sep-07 09:00N 49°23' W 123°58'714.9
2019-Sep-07 08:31N 49°24' W 124°09'714.7
2019-Sep-07 08:00N 49°26' W 124°20'814.9
2019-Sep-07 07:28N 49°32' W 124°29'714.9
2019-Sep-07 07:01N 49°36' W 124°36'814.9
2019-Sep-07 06:30N 49°42' W 124°45'715.0
2019-Sep-07 06:01N 49°47' W 124°53'714.9
2019-Sep-07 05:30N 49°52' W 125°02'714.4
2019-Sep-07 05:00N 49°57' W 125°09'714.8
2019-Sep-07 04:30N 50°04' W 125°15'714.4
2019-Sep-07 04:00N 50°09' W 125°21'714.3
2019-Sep-07 03:30N 50°16' W 125°24'6614.9
2019-Sep-06 23:05N 50°44' W 126°58'2516.0
2019-Sep-06 21:30N 50°58' W 127°31'815.2
2019-Sep-06 20:59N 51°04' W 127°40'815.8
2019-Sep-06 20:31N 51°09' W 127°49'815.5
2019-Sep-06 20:01N 51°16' W 127°53'816.7
2019-Sep-06 19:31N 51°24' W 127°51'816.7
2019-Sep-06 19:01N 51°33' W 127°53'816.9
2019-Sep-06 18:30N 51°41' W 127°55'816.5
2019-Sep-06 18:01N 51°49' W 127°56'817.0
2019-Sep-06 17:31N 51°58' W 127°56'812.8
2019-Sep-06 16:54N 52°05' W 128°02'513.2
2019-Sep-06 16:31N 52°08' W 128°08'4 7.2
2019-Sep-06 16:00N 52°12' W 128°07'714.7
2019-Sep-06 15:30N 52°15' W 128°18'816.1
2019-Sep-06 15:00N 52°15' W 128°31'816.1
2019-Sep-06 14:30N 52°13' W 128°43'713.9
2019-Sep-06 14:00N 52°20' W 128°48'816.6
2019-Sep-06 13:30N 52°28' W 128°51'816.4
2019-Sep-06 13:00N 52°36' W 128°53'815.7
2019-Sep-06 12:30N 52°42' W 129°01'816.0
2019-Sep-06 12:00N 52°48' W 129°11'  

Dump ship's entire track history